createdAt,value
2022-11-06T00:00:19.103Z,6.23
2022-11-06T00:03:21.166Z,7.18
2022-11-06T00:06:42.135Z,6.50
2022-11-06T00:09:44.056Z,5.67
2022-11-06T00:12:46.463Z,6.05
2022-11-06T00:15:48.385Z,6.28
2022-11-06T00:18:50.702Z,7.75
2022-11-06T00:21:52.643Z,5.75
2022-11-06T00:24:54.646Z,5.18
2022-11-06T00:27:56.659Z,5.60
2022-11-06T00:31:05.669Z,5.17
2022-11-06T00:34:07.768Z,4.90
2022-11-06T00:37:09.904Z,4.93
2022-11-06T00:40:12.316Z,3.83
2022-11-06T00:43:14.284Z,3.70
2022-11-06T00:46:16.591Z,4.45
2022-11-06T00:49:18.519Z,3.70
2022-11-06T00:52:20.475Z,3.97
2022-11-06T00:55:22.441Z,3.28
2022-11-06T00:58:24.402Z,4.13
2022-11-06T01:01:30.477Z,2.83
2022-11-06T01:04:32.469Z,4.30
2022-11-06T01:07:34.464Z,3.20
2022-11-06T01:10:37.417Z,3.90
2022-11-06T01:13:39.392Z,4.25
2022-11-06T01:16:41.395Z,3.08
2022-11-06T01:19:43.341Z,3.97
2022-11-06T01:22:45.308Z,3.58
2022-11-06T01:26:00.469Z,3.63
2022-11-06T01:29:02.420Z,3.33
2022-11-06T01:32:04.570Z,4.20
2022-11-06T01:35:06.657Z,3.15
2022-11-06T01:38:08.609Z,3.30
2022-11-06T01:41:14.263Z,3.08
2022-11-06T01:44:34.829Z,2.25
2022-11-06T01:47:36.889Z,3.37
2022-11-06T01:50:39.270Z,3.25
2022-11-06T01:53:41.568Z,3.20
2022-11-06T01:56:44.726Z,3.55
2022-11-06T01:59:46.851Z,3.60
2022-11-06T02:02:50.121Z,3.80
2022-11-06T02:05:56.364Z,3.40
2022-11-06T02:08:58.288Z,3.53
2022-11-06T02:12:03.005Z,3.17
2022-11-06T02:15:07.790Z,2.78
2022-11-06T02:18:25.329Z,3.60
2022-11-06T02:21:34.508Z,3.28
2022-11-06T02:24:48.824Z,3.25
2022-11-06T02:27:57.236Z,3.35
2022-11-06T02:31:00.157Z,3.37
2022-11-06T02:34:05.347Z,3.20
2022-11-06T02:37:10.762Z,3.80
2022-11-06T02:40:13.538Z,3.83
2022-11-06T02:43:15.849Z,3.80
2022-11-06T02:46:20.385Z,3.50
2022-11-06T02:49:31.165Z,3.90
2022-11-06T02:52:45.715Z,3.37
2022-11-06T02:55:49.628Z,2.95
2022-11-06T02:58:56.747Z,3.38
2022-11-06T03:02:01.213Z,2.90
2022-11-06T03:05:08.675Z,3.60
2022-11-06T03:08:36.855Z,3.22
2022-11-06T03:11:39.146Z,3.88
2022-11-06T03:14:50.272Z,3.20
2022-11-06T03:17:57.564Z,3.00
2022-11-06T03:21:07.765Z,3.13
2022-11-06T03:24:44.964Z,3.13
2022-11-06T03:27:59.419Z,3.60
2022-11-06T03:31:06.727Z,3.25
2022-11-06T03:34:10.670Z,3.95
2022-11-06T03:37:15.891Z,3.43
2022-11-06T03:40:19.825Z,3.00
2022-11-06T03:43:24.021Z,2.78
2022-11-06T03:46:26.771Z,3.60
2022-11-06T03:49:33.704Z,3.35
2022-11-06T03:52:38.221Z,3.33
2022-11-06T03:55:43.399Z,3.13
2022-11-06T03:58:47.378Z,2.83
2022-11-06T04:01:50.257Z,3.83
2022-11-06T04:04:54.792Z,3.47
2022-11-06T04:08:28.903Z,3.00
2022-11-06T04:11:49.628Z,3.70
2022-11-06T04:14:54.275Z,3.53
2022-11-06T04:17:56.203Z,3.78
2022-11-06T04:21:22.140Z,3.13
2022-11-06T04:25:01.187Z,4.10
2022-11-06T04:28:23.450Z,3.95
2022-11-06T04:31:33.627Z,3.70
2022-11-06T04:34:54.152Z,3.85
2022-11-06T04:38:04.196Z,3.55
2022-11-06T04:41:18.409Z,4.45
2022-11-06T04:44:24.934Z,5.07
2022-11-06T04:47:27.498Z,4.40
2022-11-06T04:50:30.529Z,4.03
2022-11-06T04:53:33.222Z,4.13
2022-11-06T04:56:37.929Z,2.85
2022-11-06T04:59:42.201Z,3.47
2022-11-06T05:02:44.155Z,4.07
2022-11-06T05:05:46.096Z,4.05
2022-11-06T05:08:48.181Z,4.07
2022-11-06T05:11:50.197Z,3.78
2022-11-06T05:14:52.145Z,4.07
2022-11-06T05:17:54.096Z,3.88
2022-11-06T05:21:17.358Z,4.20
2022-11-06T05:24:19.374Z,3.95
2022-11-06T05:27:21.323Z,5.10
2022-11-06T05:30:24.163Z,4.35
2022-11-06T05:33:26.296Z,4.85
2022-11-06T05:36:28.388Z,4.63
2022-11-06T05:39:30.379Z,4.45
2022-11-06T05:42:32.360Z,5.25
2022-11-06T05:45:34.315Z,5.75
2022-11-06T05:48:36.332Z,4.70
2022-11-06T05:51:38.289Z,4.53
2022-11-06T05:54:40.223Z,5.38
2022-11-06T05:57:42.638Z,4.53
2022-11-06T06:00:44.611Z,5.10
2022-11-06T06:03:46.613Z,4.05
2022-11-06T06:06:48.633Z,4.57
2022-11-06T06:09:50.616Z,4.07
2022-11-06T06:12:52.560Z,4.88
2022-11-06T06:15:54.535Z,4.82
2022-11-06T06:18:56.540Z,4.30
2022-11-06T06:21:58.644Z,4.97
2022-11-06T06:25:01.957Z,4.93
2022-11-06T06:28:03.939Z,4.80
2022-11-06T06:31:06.923Z,5.28
2022-11-06T06:34:08.889Z,4.70
2022-11-06T06:37:10.867Z,5.05
2022-11-06T06:40:12.951Z,5.20
2022-11-06T06:43:14.933Z,5.05
2022-11-06T06:46:16.902Z,5.30
2022-11-06T06:49:18.823Z,4.97
2022-11-06T06:52:20.825Z,5.13
2022-11-06T06:55:22.766Z,4.80
2022-11-06T06:58:25.155Z,5.70
2022-11-06T07:01:27.405Z,5.20
2022-11-06T07:04:29.484Z,4.95
2022-11-06T07:07:32.163Z,5.30
2022-11-06T07:10:34.115Z,4.72
2022-11-06T07:13:36.708Z,5.33
2022-11-06T07:16:38.735Z,4.95
2022-11-06T07:19:40.675Z,5.15
2022-11-06T07:22:42.665Z,5.55
2022-11-06T07:25:44.579Z,5.47
2022-11-06T07:28:46.606Z,6.03
2022-11-06T07:31:48.514Z,5.00
2022-11-06T07:34:50.474Z,5.10
2022-11-06T07:37:52.475Z,5.10
2022-11-06T07:40:54.501Z,5.25
2022-11-06T07:43:56.543Z,4.65
2022-11-06T07:46:58.506Z,5.20
2022-11-06T07:50:00.502Z,4.80
2022-11-06T07:53:03.305Z,5.13
2022-11-06T07:56:05.392Z,4.38
2022-11-06T07:59:07.352Z,4.80
2022-11-06T08:02:15.738Z,4.07
2022-11-06T08:05:17.860Z,4.53
2022-11-06T08:08:19.798Z,5.20
2022-11-06T08:11:21.772Z,4.70
2022-11-06T08:14:23.905Z,4.20
2022-11-06T08:17:27.089Z,5.07
2022-11-06T08:20:29.034Z,6.18
2022-11-06T08:23:31.068Z,5.10
2022-11-06T08:26:33.404Z,5.00
2022-11-06T08:29:40.870Z,4.55
2022-11-06T08:32:43.398Z,4.07
2022-11-06T08:35:45.517Z,5.20
2022-11-06T08:38:48.574Z,3.78
2022-11-06T08:41:50.535Z,3.70
2022-11-06T08:44:52.503Z,4.05
2022-11-06T08:47:54.526Z,3.83
2022-11-06T08:50:56.463Z,3.35
2022-11-06T08:53:58.832Z,4.10
2022-11-06T08:57:00.928Z,4.70
2022-11-06T09:00:03.700Z,4.97
2022-11-06T09:03:07.156Z,3.33
2022-11-06T09:06:09.140Z,3.60
2022-11-06T09:09:11.156Z,4.13
2022-11-06T09:12:13.086Z,3.10
2022-11-06T09:15:15.083Z,2.90
2022-11-06T09:18:17.207Z,3.08
2022-11-06T09:21:19.162Z,3.25
2022-11-06T09:24:32.287Z,3.63
2022-11-06T09:27:43.324Z,2.73
2022-11-06T09:30:45.307Z,3.47
2022-11-06T09:33:47.249Z,3.78
2022-11-06T09:36:49.190Z,3.75
2022-11-06T09:39:51.150Z,3.97
2022-11-06T09:42:59.363Z,3.70
2022-11-06T09:46:06.244Z,3.20
2022-11-06T09:49:18.483Z,4.05
2022-11-06T09:52:26.411Z,3.80
2022-11-06T09:55:31.159Z,3.92
2022-11-06T09:58:37.259Z,3.07
2022-11-06T10:01:54.393Z,3.38
2022-11-06T10:05:13.222Z,3.28
2022-11-06T10:08:26.993Z,3.15
2022-11-06T10:11:34.861Z,3.22
2022-11-06T10:14:55.358Z,3.03
2022-11-06T10:18:29.680Z,3.20
2022-11-06T10:21:40.507Z,3.22
2022-11-06T10:25:00.627Z,3.38
2022-11-06T10:28:08.738Z,3.42
2022-11-06T10:31:10.640Z,3.33
2022-11-06T10:34:15.783Z,4.10
2022-11-06T10:37:23.602Z,3.95
2022-11-06T10:40:27.204Z,3.30
2022-11-06T10:43:29.162Z,4.22
2022-11-06T10:46:39.491Z,4.60
2022-11-06T10:49:46.553Z,3.88
2022-11-06T10:52:51.590Z,4.00
2022-11-06T10:56:18.443Z,3.83
2022-11-06T10:59:22.933Z,3.80
2022-11-06T11:02:31.138Z,3.90
2022-11-06T11:05:40.168Z,3.60
2022-11-06T11:08:49.294Z,4.00
2022-11-06T11:11:51.237Z,4.00
2022-11-06T11:15:10.270Z,3.80
2022-11-06T11:18:12.483Z,4.57
2022-11-06T11:21:15.668Z,5.15
2022-11-06T11:24:17.622Z,4.93
2022-11-06T11:27:19.607Z,6.18
2022-11-06T11:30:23.423Z,6.80
2022-11-06T11:33:26.424Z,5.80
2022-11-06T11:36:47.218Z,4.72
2022-11-06T11:39:49.177Z,6.03
2022-11-06T11:42:51.136Z,5.72
2022-11-06T11:46:02.929Z,4.82
2022-11-06T11:49:05.557Z,3.57
2022-11-06T11:52:12.431Z,4.22
2022-11-06T11:55:16.585Z,3.60
2022-11-06T11:58:23.925Z,2.70
2022-11-06T12:01:34.891Z,2.70
2022-11-06T12:04:40.181Z,4.37
2022-11-06T12:07:46.458Z,4.10
2022-11-06T12:10:49.023Z,3.88
2022-11-06T12:14:09.926Z,3.90
2022-11-06T12:17:15.468Z,3.30
2022-11-06T12:20:20.632Z,4.37
2022-11-06T12:23:38.244Z,3.45
2022-11-06T12:26:55.410Z,3.63
2022-11-06T12:30:03.601Z,5.00
2022-11-06T12:33:14.607Z,5.00
2022-11-06T12:36:18.715Z,4.97
2022-11-06T12:39:24.584Z,3.92
2022-11-06T12:42:30.201Z,5.43
2022-11-06T12:45:47.846Z,4.13
2022-11-06T12:48:58.967Z,3.88
2022-11-06T12:52:15.145Z,3.17
2022-11-06T12:55:26.019Z,3.55
2022-11-06T12:58:43.935Z,4.03
2022-11-06T13:01:53.482Z,4.15
2022-11-06T13:05:01.955Z,4.57
2022-11-06T13:08:13.527Z,3.07
2022-11-06T13:11:25.253Z,3.05
2022-11-06T13:14:30.489Z,3.53
2022-11-06T13:17:37.149Z,3.63
2022-11-06T13:20:41.831Z,3.50
2022-11-06T13:23:54.879Z,3.33
2022-11-06T13:27:17.073Z,3.17
2022-11-06T13:30:22.882Z,3.65
2022-11-06T13:33:24.795Z,3.45
2022-11-06T13:36:27.176Z,3.17
2022-11-06T13:39:52.158Z,3.20
2022-11-06T13:43:20.623Z,3.30
2022-11-06T13:46:41.374Z,3.90
2022-11-06T13:49:56.006Z,3.80
2022-11-06T13:53:01.448Z,6.88
2022-11-06T13:56:18.262Z,3.50
2022-11-06T13:59:41.920Z,4.00
2022-11-06T14:03:02.366Z,3.20
2022-11-06T14:06:04.387Z,3.38
2022-11-06T14:09:10.761Z,3.72
2022-11-06T14:12:16.173Z,3.80
2022-11-06T14:15:21.090Z,4.53
2022-11-06T14:18:23.837Z,4.65
2022-11-06T14:21:25.752Z,4.00
2022-11-06T14:24:32.200Z,4.18
2022-11-06T14:27:36.872Z,3.70
2022-11-06T14:31:11.123Z,3.88
2022-11-06T14:34:03.360Z,4.03
2022-11-06T14:37:20.331Z,4.05
2022-11-06T14:40:31.268Z,5.20
2022-11-06T14:43:36.058Z,4.83
2022-11-06T14:46:38.016Z,6.25
2022-11-06T14:49:42.222Z,6.65
2022-11-06T14:52:46.958Z,5.55
2022-11-06T14:55:58.044Z,5.85
2022-11-06T14:59:05.722Z,4.93
2022-11-06T15:02:07.824Z,5.15
2022-11-06T15:05:17.905Z,7.80
2022-11-06T15:08:38.259Z,8.35
2022-11-06T15:11:47.687Z,8.98
2022-11-06T15:14:50.006Z,8.47
2022-11-06T15:17:51.997Z,8.20
2022-11-06T15:20:58.586Z,7.75
2022-11-06T15:24:08.824Z,5.50
2022-11-06T15:27:18.068Z,5.50
2022-11-06T15:30:20.475Z,11.27
2022-11-06T15:33:26.801Z,15.48
2022-11-06T15:36:30.494Z,14.30
2022-11-06T15:39:38.068Z,17.90
2022-11-06T15:42:40.983Z,19.15
2022-11-06T15:45:43.054Z,16.30
2022-11-06T15:48:45.466Z,17.38
2022-11-06T15:52:00.531Z,18.80
2022-11-06T15:55:06.311Z,22.13
2022-11-06T15:58:17.703Z,29.92
2022-11-06T16:01:25.224Z,34.27
2022-11-06T16:04:27.348Z,37.60
2022-11-06T16:07:29.448Z,34.83
2022-11-06T16:10:31.841Z,39.25
2022-11-06T16:13:33.819Z,42.97
2022-11-06T16:16:35.854Z,43.13
2022-11-06T16:19:39.530Z,46.35
2022-11-06T16:22:41.525Z,38.10
2022-11-06T16:25:43.550Z,34.90
2022-11-06T16:28:46.911Z,32.20
2022-11-06T16:31:49.606Z,33.65
2022-11-06T16:34:51.908Z,31.38
2022-11-06T16:38:03.464Z,27.80
2022-11-06T16:41:36.620Z,24.83
2022-11-06T16:44:38.522Z,29.40
2022-11-06T16:47:40.496Z,26.67
2022-11-06T16:50:44.454Z,27.63
2022-11-06T16:53:48.355Z,29.57
2022-11-06T16:56:50.314Z,31.80
2022-11-06T17:00:15.044Z,36.45
2022-11-06T17:03:21.262Z,47.13
2022-11-06T17:06:24.629Z,33.90
2022-11-06T17:09:28.801Z,46.67
2022-11-06T17:12:30.729Z,42.10
2022-11-06T17:15:32.732Z,41.55
2022-11-06T17:18:35.816Z,39.83
2022-11-06T17:21:37.823Z,40.40
2022-11-06T17:24:39.771Z,42.75
2022-11-06T17:27:41.782Z,43.38
2022-11-06T17:30:43.779Z,44.10
2022-11-06T17:33:45.942Z,46.50
2022-11-06T17:36:47.909Z,48.33
2022-11-06T17:39:49.839Z,51.90
2022-11-06T17:42:51.794Z,52.73
2022-11-06T17:45:53.806Z,47.58
2022-11-06T17:48:56.262Z,46.75
2022-11-06T17:51:59.952Z,47.83
2022-11-06T17:55:02.362Z,46.00
2022-11-06T17:58:04.325Z,54.08
2022-11-06T18:01:08.026Z,50.90
2022-11-06T18:04:10.125Z,47.75
2022-11-06T18:07:12.158Z,50.03
2022-11-06T18:10:14.167Z,54.38
2022-11-06T18:13:16.106Z,59.10
2022-11-06T18:16:28.126Z,51.57
2022-11-06T18:19:30.151Z,51.78
2022-11-06T18:22:32.129Z,52.15
2022-11-06T18:25:34.047Z,54.72
2022-11-06T18:28:36.035Z,55.13
2022-11-06T18:31:38.255Z,56.03
2022-11-06T18:34:40.477Z,65.75
2022-11-06T18:37:42.406Z,68.53
2022-11-06T18:40:48.870Z,77.37
2022-11-06T18:43:57.409Z,98.43
2022-11-06T18:46:59.461Z,110.45
2022-11-06T18:50:01.444Z,102.90
2022-11-06T18:53:03.959Z,104.40
2022-11-06T18:56:08.847Z,133.38
2022-11-06T18:59:13.901Z,124.45
2022-11-06T19:02:18.419Z,113.38
2022-11-06T19:05:20.518Z,107.60
2022-11-06T19:08:22.482Z,101.20
2022-11-06T19:11:24.491Z,86.03
2022-11-06T19:14:26.455Z,73.82
2022-11-06T19:17:28.458Z,75.50
2022-11-06T19:20:30.489Z,71.68
2022-11-06T19:23:32.550Z,67.75
2022-11-06T19:26:35.733Z,62.50
2022-11-06T19:29:37.859Z,59.33
2022-11-06T19:32:39.877Z,60.90
2022-11-06T19:35:41.853Z,74.18
2022-11-06T19:38:43.834Z,69.22
2022-11-06T19:41:45.814Z,53.87
2022-11-06T19:44:47.746Z,54.22
2022-11-06T19:47:49.693Z,65.95
2022-11-06T19:50:59.778Z,63.60
2022-11-06T19:54:02.153Z,57.30
2022-11-06T19:57:29.465Z,60.10
2022-11-06T20:00:26.050Z,59.75
2022-11-06T20:03:28.066Z,57.93
2022-11-06T20:06:30.141Z,58.17
2022-11-06T20:09:34.379Z,58.97
2022-11-06T20:12:36.377Z,58.20
2022-11-06T20:15:38.334Z,60.50
2022-11-06T20:18:40.319Z,61.03
2022-11-06T20:21:42.243Z,63.75
2022-11-06T20:24:44.239Z,54.40
2022-11-06T20:27:46.292Z,51.97
2022-11-06T20:30:48.786Z,51.10
2022-11-06T20:33:51.767Z,52.78
2022-11-06T20:36:54.364Z,45.50
2022-11-06T20:39:56.343Z,48.10
2022-11-06T20:42:58.606Z,71.78
2022-11-06T20:46:01.303Z,117.90
2022-11-06T20:49:03.282Z,83.22
2022-11-06T20:52:14.763Z,83.97
2022-11-06T20:55:17.184Z,58.33
2022-11-06T20:58:19.148Z,49.95
2022-11-06T21:01:23.014Z,48.65
2022-11-06T21:04:25.144Z,50.73
2022-11-06T21:07:27.173Z,48.38
2022-11-06T21:10:29.256Z,46.30
2022-11-06T21:13:31.605Z,45.08
2022-11-06T21:16:35.334Z,45.25
2022-11-06T21:19:37.303Z,48.10
2022-11-06T21:22:39.307Z,42.65
2022-11-06T21:25:45.070Z,40.50
2022-11-06T21:28:47.520Z,38.80
2022-11-06T21:31:50.117Z,37.92
2022-11-06T21:34:52.103Z,37.80
2022-11-06T21:37:54.058Z,34.23
2022-11-06T21:40:56.022Z,31.05
2022-11-06T21:43:57.999Z,31.48
2022-11-06T21:46:59.985Z,33.13
2022-11-06T21:50:01.964Z,30.75
2022-11-06T21:53:22.635Z,31.08
2022-11-06T21:56:26.311Z,30.60
2022-11-06T21:59:29.029Z,30.63
2022-11-06T22:02:31.077Z,30.67
2022-11-06T22:05:33.137Z,29.75
2022-11-06T22:08:36.752Z,30.40
2022-11-06T22:11:40.327Z,29.50
2022-11-06T22:14:42.278Z,32.90
2022-11-06T22:17:44.270Z,30.95
2022-11-06T22:20:46.192Z,32.57
2022-11-06T22:23:48.203Z,34.40
2022-11-06T22:26:50.180Z,32.45
2022-11-06T22:29:52.178Z,35.37
2022-11-06T22:32:54.150Z,37.72
2022-11-06T22:36:02.006Z,35.22
2022-11-06T22:39:04.967Z,41.50
2022-11-06T22:42:07.301Z,41.55
2022-11-06T22:45:09.628Z,40.50
2022-11-06T22:48:11.820Z,37.55
2022-11-06T22:51:15.294Z,35.40
2022-11-06T22:54:17.259Z,35.08
2022-11-06T22:57:19.424Z,37.35
2022-11-06T23:00:21.936Z,35.73
2022-11-06T23:03:24.652Z,41.30
2022-11-06T23:06:28.220Z,39.13
2022-11-06T23:09:30.276Z,39.92
2022-11-06T23:12:32.450Z,40.73
2022-11-06T23:15:34.841Z,36.78
2022-11-06T23:18:36.839Z,36.97
2022-11-06T23:21:39.112Z,35.17
2022-11-06T23:24:41.352Z,36.38
2022-11-06T23:27:49.469Z,36.53
2022-11-06T23:30:51.815Z,34.15
2022-11-06T23:33:54.713Z,35.13
2022-11-06T23:36:56.666Z,37.88
2022-11-06T23:39:58.618Z,37.75
2022-11-06T23:43:00.576Z,37.65
2022-11-06T23:46:02.520Z,38.90
2022-11-06T23:49:04.476Z,38.72
2022-11-06T23:52:06.488Z,40.88
2022-11-06T23:55:08.832Z,40.93
2022-11-06T23:58:10.831Z,43.92
